createdAt,value
2023-04-29T00:00:55.269Z,11.40
2023-04-29T00:03:24.808Z,11.40
2023-04-29T00:05:52.929Z,11.40
2023-04-29T00:08:21.134Z,11.40
2023-04-29T00:10:48.938Z,11.50
2023-04-29T00:13:16.844Z,11.50
2023-04-29T00:15:44.956Z,11.50
2023-04-29T00:18:14.116Z,11.50
2023-04-29T00:20:43.597Z,11.50
2023-04-29T00:23:11.587Z,11.50
2023-04-29T00:25:39.530Z,11.50
2023-04-29T00:28:07.860Z,11.50
2023-04-29T00:30:35.963Z,11.50
2023-04-29T00:33:03.856Z,11.50
2023-04-29T00:35:31.769Z,11.50
2023-04-29T00:38:00.943Z,11.40
2023-04-29T00:40:29.196Z,11.50
2023-04-29T00:42:57.173Z,11.50
2023-04-29T00:45:25.223Z,11.40
2023-04-29T00:47:53.065Z,11.40
2023-04-29T00:50:22.656Z,11.40
2023-04-29T00:52:50.473Z,11.30
2023-04-29T00:55:20.275Z,11.30
2023-04-29T00:57:50.021Z,11.30
2023-04-29T01:00:17.885Z,11.30
2023-04-29T01:02:46.803Z,11.40
2023-04-29T01:05:15.365Z,11.30
2023-04-29T01:07:57.191Z,11.30
2023-04-29T01:10:29.748Z,11.20
2023-04-29T01:13:06.823Z,11.20
2023-04-29T01:15:40.919Z,11.20
2023-04-29T01:18:13.538Z,11.20
2023-04-29T01:20:42.095Z,11.20
2023-04-29T01:23:09.888Z,11.10
2023-04-29T01:25:39.393Z,11.10
2023-04-29T01:28:15.599Z,11.10
2023-04-29T01:30:53.687Z,11.10
2023-04-29T01:33:30.669Z,11.10
2023-04-29T01:36:08.535Z,11.10
2023-04-29T01:38:42.031Z,11.10
2023-04-29T01:41:17.139Z,11.10
2023-04-29T01:43:48.750Z,11.00
2023-04-29T01:46:19.501Z,11.00
2023-04-29T01:48:47.657Z,11.10
2023-04-29T01:51:15.478Z,11.10
2023-04-29T01:53:43.320Z,11.10
2023-04-29T01:56:11.126Z,11.10
2023-04-29T01:58:40.245Z,11.10
2023-04-29T02:01:10.314Z,11.10
2023-04-29T02:03:39.153Z,11.20
2023-04-29T02:06:08.031Z,11.20
2023-04-29T02:08:35.872Z,11.10
2023-04-29T02:11:03.699Z,11.20
2023-04-29T02:13:31.974Z,11.20
2023-04-29T02:16:08.872Z,11.10
2023-04-29T02:18:36.730Z,11.10
2023-04-29T02:21:04.676Z,11.10
2023-04-29T02:23:32.471Z,11.10
2023-04-29T02:26:00.374Z,11.10
2023-04-29T02:28:28.203Z,11.20
2023-04-29T02:30:55.992Z,11.20
2023-04-29T02:33:25.253Z,11.20
2023-04-29T02:35:53.057Z,11.20
2023-04-29T02:38:21.021Z,11.20
2023-04-29T02:40:49.033Z,11.30
2023-04-29T02:43:16.832Z,11.30
2023-04-29T02:45:44.805Z,11.20
2023-04-29T02:48:12.708Z,11.30
2023-04-29T02:50:41.888Z,11.30
2023-04-29T02:53:09.690Z,11.30
2023-04-29T02:55:37.506Z,11.30
2023-04-29T02:58:05.334Z,11.40
2023-04-29T03:00:33.142Z,11.30
2023-04-29T03:03:01.745Z,11.30
2023-04-29T03:05:29.836Z,11.30
2023-04-29T03:07:59.102Z,11.20
2023-04-29T03:10:26.918Z,11.20
2023-04-29T03:12:54.721Z,11.10
2023-04-29T03:15:22.575Z,11.10
2023-04-29T03:17:50.435Z,11.00
2023-04-29T03:20:18.254Z,11.10
2023-04-29T03:22:46.519Z,11.00
2023-04-29T03:25:15.641Z,11.00
2023-04-29T03:27:43.491Z,11.00
2023-04-29T03:30:12.073Z,10.90
2023-04-29T03:32:39.898Z,10.90
2023-04-29T03:35:08.482Z,10.90
2023-04-29T03:37:36.287Z,10.90
2023-04-29T03:40:04.295Z,10.80
2023-04-29T03:42:33.651Z,10.80
2023-04-29T03:45:01.983Z,10.80
2023-04-29T03:47:29.809Z,10.80
2023-04-29T03:49:57.608Z,10.70
2023-04-29T03:52:25.773Z,10.70
2023-04-29T03:54:53.593Z,10.60
2023-04-29T03:57:21.609Z,10.60
2023-04-29T03:59:51.341Z,10.70
2023-04-29T04:02:19.550Z,10.70
2023-04-29T04:04:47.556Z,10.70
2023-04-29T04:07:15.677Z,10.70
2023-04-29T04:09:43.494Z,10.60
2023-04-29T04:12:11.267Z,10.60
2023-04-29T04:14:39.546Z,10.60
2023-04-29T04:17:08.682Z,10.50
2023-04-29T04:19:36.517Z,10.50
2023-04-29T04:22:04.718Z,10.50
2023-04-29T04:24:32.533Z,10.40
2023-04-29T04:27:00.958Z,10.40
2023-04-29T04:29:28.781Z,10.40
2023-04-29T04:31:56.756Z,10.40
2023-04-29T04:34:26.359Z,10.30
2023-04-29T04:36:54.207Z,10.30
2023-04-29T04:39:22.028Z,10.40
2023-04-29T04:41:49.835Z,10.50
2023-04-29T04:44:17.674Z,10.50
2023-04-29T04:46:45.519Z,10.70
2023-04-29T04:49:13.332Z,10.90
2023-04-29T04:51:45.110Z,11.00
2023-04-29T04:54:13.575Z,11.00
2023-04-29T04:56:41.368Z,11.00
2023-04-29T04:59:09.445Z,11.00
2023-04-29T05:01:37.414Z,11.10
2023-04-29T05:04:05.594Z,11.10
2023-04-29T05:06:33.481Z,11.20
2023-04-29T05:09:03.258Z,11.20
2023-04-29T05:11:31.062Z,11.20
2023-04-29T05:13:58.925Z,11.20
2023-04-29T05:16:26.738Z,11.30
2023-04-29T05:18:54.539Z,11.30
2023-04-29T05:21:22.381Z,11.30
2023-04-29T05:23:50.201Z,11.30
2023-04-29T05:26:19.358Z,11.40
2023-04-29T05:28:47.175Z,11.40
2023-04-29T05:31:15.023Z,11.40
2023-04-29T05:33:42.834Z,11.50
2023-04-29T05:36:10.792Z,11.70
2023-04-29T05:38:38.648Z,11.80
2023-04-29T05:41:06.605Z,12.10
2023-04-29T05:43:36.876Z,12.20
2023-04-29T05:46:04.891Z,12.20
2023-04-29T05:48:32.714Z,12.10
2023-04-29T05:51:00.745Z,12.10
2023-04-29T05:53:28.517Z,12.10
2023-04-29T05:55:56.303Z,12.20
2023-04-29T05:58:24.129Z,12.10
2023-04-29T06:00:53.257Z,12.10
2023-04-29T06:03:21.291Z,12.20
2023-04-29T06:05:50.354Z,12.30
2023-04-29T06:08:18.416Z,12.30
2023-04-29T06:10:46.287Z,12.30
2023-04-29T06:13:14.179Z,12.30
2023-04-29T06:15:42.138Z,12.30
2023-04-29T06:18:11.342Z,12.30
2023-04-29T06:20:39.218Z,12.20
2023-04-29T06:23:07.263Z,12.30
2023-04-29T06:25:35.146Z,12.40
2023-04-29T06:28:04.378Z,12.40
2023-04-29T06:30:32.277Z,12.50
2023-04-29T06:33:00.146Z,12.50
2023-04-29T06:35:29.323Z,12.40
2023-04-29T06:37:57.193Z,12.50
2023-04-29T06:40:25.120Z,12.50
2023-04-29T06:42:53.271Z,12.40
2023-04-29T06:45:21.069Z,12.30
2023-04-29T06:47:48.925Z,12.30
2023-04-29T06:50:16.783Z,12.10
2023-04-29T06:52:45.933Z,12.20
2023-04-29T06:55:13.743Z,12.30
2023-04-29T06:57:41.544Z,12.30
2023-04-29T07:00:10.253Z,12.40
2023-04-29T07:02:39.191Z,12.60
2023-04-29T07:05:08.300Z,12.60
2023-04-29T07:07:36.090Z,12.70
2023-04-29T07:10:05.856Z,12.60
2023-04-29T07:12:33.653Z,12.80
2023-04-29T07:15:01.821Z,12.90
2023-04-29T07:17:31.402Z,13.00
2023-04-29T07:19:59.366Z,12.90
2023-04-29T07:22:27.193Z,12.90
2023-04-29T07:24:55.649Z,12.70
2023-04-29T07:27:25.025Z,12.90
2023-04-29T07:29:52.831Z,12.50
2023-04-29T07:32:20.672Z,12.80
2023-04-29T07:34:48.755Z,13.80
2023-04-29T07:37:16.722Z,14.30
2023-04-29T07:39:44.531Z,14.40
2023-04-29T07:42:12.438Z,14.20
2023-04-29T07:44:41.617Z,13.70
2023-04-29T07:47:09.478Z,13.30
2023-04-29T07:49:37.429Z,13.60
2023-04-29T07:52:06.125Z,13.20
2023-04-29T07:54:33.933Z,13.50
2023-04-29T07:57:03.383Z,13.80
2023-04-29T07:59:31.553Z,14.20
2023-04-29T08:02:00.868Z,14.10
2023-04-29T08:04:28.888Z,14.30
2023-04-29T08:06:57.001Z,14.60
2023-04-29T08:09:24.939Z,14.20
2023-04-29T08:11:52.750Z,14.80
2023-04-29T08:14:20.650Z,15.50
2023-04-29T08:16:48.508Z,15.30
2023-04-29T08:19:17.649Z,15.40
2023-04-29T08:21:45.451Z,15.40
2023-04-29T08:24:13.638Z,15.60
2023-04-29T08:26:42.409Z,15.90
2023-04-29T08:29:10.337Z,14.80
2023-04-29T08:31:38.171Z,14.30
2023-04-29T08:34:06.002Z,14.40
2023-04-29T08:36:37.017Z,14.10
2023-04-29T08:39:05.000Z,14.00
2023-04-29T08:41:33.625Z,14.50
2023-04-29T08:44:01.904Z,14.30
2023-04-29T08:46:30.127Z,14.00
2023-04-29T08:48:58.875Z,14.70
2023-04-29T08:51:26.795Z,14.30
2023-04-29T08:53:57.118Z,14.60
2023-04-29T08:56:27.845Z,14.40
2023-04-29T08:58:58.933Z,14.10
2023-04-29T09:01:29.084Z,14.50
2023-04-29T09:04:09.288Z,14.80
2023-04-29T09:06:37.300Z,14.90
2023-04-29T09:09:07.560Z,14.60
2023-04-29T09:11:36.333Z,14.50
2023-04-29T09:14:04.404Z,14.50
2023-04-29T09:16:32.369Z,14.80
2023-04-29T09:19:00.277Z,15.60
2023-04-29T09:21:29.570Z,15.70
2023-04-29T09:23:58.830Z,15.90
2023-04-29T09:26:28.379Z,15.70
2023-04-29T09:29:09.246Z,15.40
2023-04-29T09:31:39.034Z,14.80
2023-04-29T09:34:07.027Z,15.50
2023-04-29T09:36:42.796Z,14.90
2023-04-29T09:39:12.518Z,15.30
2023-04-29T09:42:00.039Z,15.10
2023-04-29T09:44:31.306Z,15.50
2023-04-29T09:47:03.176Z,16.20
2023-04-29T09:49:33.611Z,16.10
2023-04-29T09:52:02.629Z,16.60
2023-04-29T09:54:31.938Z,15.40
2023-04-29T09:57:02.339Z,15.70
2023-04-29T09:59:30.423Z,15.70
2023-04-29T10:01:58.986Z,16.30
2023-04-29T10:04:28.403Z,15.50
2023-04-29T10:06:57.220Z,15.40
2023-04-29T10:09:25.529Z,15.60
2023-04-29T10:11:54.757Z,15.60
2023-04-29T10:14:25.739Z,15.90
2023-04-29T10:17:00.843Z,16.20
2023-04-29T10:19:35.421Z,16.60
2023-04-29T10:22:10.547Z,16.60
2023-04-29T10:24:40.089Z,16.90
2023-04-29T10:27:09.268Z,17.20
2023-04-29T10:29:41.497Z,17.10
2023-04-29T10:32:10.945Z,16.50
2023-04-29T10:34:40.525Z,16.00
2023-04-29T10:37:11.320Z,16.00
2023-04-29T10:39:47.607Z,15.80
2023-04-29T10:42:27.248Z,15.90
2023-04-29T10:45:28.828Z,15.80
2023-04-29T10:48:18.735Z,15.90
2023-04-29T10:51:05.637Z,15.80
2023-04-29T10:53:34.337Z,15.60
2023-04-29T10:56:09.089Z,16.30
2023-04-29T10:58:44.828Z,16.20
2023-04-29T11:01:15.838Z,16.00
2023-04-29T11:03:49.266Z,16.40
2023-04-29T11:06:17.981Z,16.10
2023-04-29T11:08:46.015Z,16.50
2023-04-29T11:11:15.332Z,16.70
2023-04-29T11:13:47.174Z,17.20
2023-04-29T11:16:16.528Z,17.00
2023-04-29T11:19:05.410Z,16.80
2023-04-29T11:21:35.454Z,16.60
2023-04-29T11:24:04.467Z,17.00
2023-04-29T11:26:32.294Z,16.90
2023-04-29T11:29:00.850Z,16.80
2023-04-29T11:31:32.170Z,16.60
2023-04-29T11:34:00.329Z,16.80
2023-04-29T11:36:28.709Z,16.90
2023-04-29T11:38:56.693Z,16.80
2023-04-29T11:41:24.560Z,16.60
2023-04-29T11:43:57.881Z,16.80
2023-04-29T11:46:28.946Z,16.50
2023-04-29T11:48:59.881Z,17.10
2023-04-29T11:51:28.593Z,17.00
2023-04-29T11:53:57.883Z,17.30
2023-04-29T11:56:26.410Z,17.80
2023-04-29T11:58:57.822Z,17.70
2023-04-29T12:01:27.332Z,17.50
2023-04-29T12:04:00.970Z,17.10
2023-04-29T12:06:30.299Z,17.80
2023-04-29T12:09:00.395Z,18.40
2023-04-29T12:11:29.017Z,17.90
2023-04-29T12:13:57.264Z,18.10
2023-04-29T12:16:25.770Z,18.10
2023-04-29T12:18:54.775Z,18.20
2023-04-29T12:21:24.535Z,18.30
2023-04-29T12:23:52.867Z,18.30
2023-04-29T12:26:21.706Z,18.60
2023-04-29T12:28:54.811Z,18.00
2023-04-29T12:31:22.878Z,17.80
2023-04-29T12:33:50.848Z,18.00
2023-04-29T12:36:19.430Z,17.90
2023-04-29T12:38:49.601Z,18.30
2023-04-29T12:41:17.774Z,18.00
2023-04-29T12:43:46.387Z,17.40
2023-04-29T12:46:15.218Z,16.90
2023-04-29T12:48:43.869Z,16.70
2023-04-29T12:51:12.476Z,16.60
2023-04-29T12:53:40.852Z,16.80
2023-04-29T12:56:13.242Z,17.40
2023-04-29T12:58:41.669Z,17.30
2023-04-29T13:01:11.290Z,17.40
2023-04-29T13:03:40.109Z,17.00
2023-04-29T13:06:08.726Z,16.80
2023-04-29T13:08:36.596Z,17.00
2023-04-29T13:11:04.389Z,17.10
2023-04-29T13:13:33.496Z,17.30
2023-04-29T13:16:01.393Z,17.50
2023-04-29T13:18:31.290Z,17.40
2023-04-29T13:21:02.264Z,17.80
2023-04-29T13:23:30.665Z,17.70
2023-04-29T13:25:58.506Z,17.40
2023-04-29T13:28:26.392Z,17.20
2023-04-29T13:30:55.528Z,17.20
2023-04-29T13:33:23.841Z,17.10
2023-04-29T13:35:51.829Z,17.10
2023-04-29T13:38:19.678Z,16.80
2023-04-29T13:40:51.194Z,16.70
2023-04-29T13:43:30.139Z,16.90
2023-04-29T13:46:07.672Z,17.20
2023-04-29T13:49:11.501Z,16.90
2023-04-29T13:52:03.917Z,16.70
2023-04-29T13:54:53.547Z,17.20
2023-04-29T13:57:36.913Z,17.20
2023-04-29T14:00:14.833Z,16.70
2023-04-29T14:02:37.441Z,16.60
2023-04-29T14:05:06.243Z,16.70
2023-04-29T14:07:34.169Z,16.30
2023-04-29T14:10:02.024Z,16.20
2023-04-29T14:12:29.884Z,16.30
2023-04-29T14:15:00.178Z,16.70
2023-04-29T14:17:28.477Z,16.50
2023-04-29T14:19:57.649Z,16.70
2023-04-29T14:22:27.400Z,16.80
2023-04-29T14:24:55.464Z,17.00
2023-04-29T14:27:23.411Z,16.80
2023-04-29T14:29:51.201Z,16.90
2023-04-29T14:32:19.014Z,17.00
2023-04-29T14:34:46.837Z,17.30
2023-04-29T14:37:16.058Z,17.00
2023-04-29T14:39:43.872Z,16.80
2023-04-29T14:42:12.759Z,16.60
2023-04-29T14:44:40.596Z,16.40
2023-04-29T14:47:08.956Z,16.30
2023-04-29T14:49:36.890Z,16.30
2023-04-29T14:52:04.864Z,16.20
2023-04-29T14:54:34.004Z,16.20
2023-04-29T14:57:02.188Z,16.30
2023-04-29T14:59:30.662Z,16.10
2023-04-29T15:01:58.645Z,15.90
2023-04-29T15:04:27.637Z,16.00
2023-04-29T15:06:56.585Z,15.90
2023-04-29T15:09:24.897Z,15.80
2023-04-29T15:11:54.090Z,16.30
2023-04-29T15:14:21.932Z,16.30
2023-04-29T15:16:49.965Z,16.10
2023-04-29T15:19:17.891Z,16.00
2023-04-29T15:21:45.677Z,15.80
2023-04-29T15:24:13.489Z,15.70
2023-04-29T15:26:41.318Z,15.50
2023-04-29T15:29:11.337Z,15.70
2023-04-29T15:31:39.692Z,15.50
2023-04-29T15:34:07.550Z,15.60
2023-04-29T15:36:35.426Z,15.70
2023-04-29T15:39:03.242Z,15.90
2023-04-29T15:41:31.080Z,15.80
2023-04-29T15:43:58.978Z,15.20
2023-04-29T15:46:28.628Z,15.10
2023-04-29T15:48:56.472Z,15.00
2023-04-29T15:51:24.306Z,14.90
2023-04-29T15:53:52.086Z,15.20
2023-04-29T15:56:19.927Z,15.20
2023-04-29T15:58:47.745Z,15.40
2023-04-29T16:01:15.956Z,15.40
2023-04-29T16:03:45.194Z,15.10
2023-04-29T16:06:13.155Z,15.20
2023-04-29T16:08:40.944Z,15.10
2023-04-29T16:11:08.796Z,15.00
2023-04-29T16:13:36.706Z,14.60
2023-04-29T16:16:04.797Z,14.60
2023-04-29T16:18:33.722Z,14.60
2023-04-29T16:21:03.095Z,14.70
2023-04-29T16:23:30.969Z,14.50
2023-04-29T16:25:58.829Z,14.30
2023-04-29T16:28:26.863Z,13.90
2023-04-29T16:30:54.697Z,14.00
2023-04-29T16:33:22.515Z,13.90
2023-04-29T16:35:50.355Z,13.70
2023-04-29T16:38:19.509Z,13.70
2023-04-29T16:40:49.445Z,13.40
2023-04-29T16:43:19.128Z,13.20
2023-04-29T16:45:47.305Z,13.10
2023-04-29T16:48:15.135Z,13.00
2023-04-29T16:50:42.983Z,13.10
2023-04-29T16:53:10.818Z,13.00
2023-04-29T16:55:39.957Z,13.10
2023-04-29T16:58:08.016Z,13.10
2023-04-29T17:00:35.842Z,13.00
2023-04-29T17:03:03.902Z,12.80
2023-04-29T17:05:31.792Z,12.60
2023-04-29T17:07:59.867Z,12.60
2023-04-29T17:10:27.922Z,12.60
2023-04-29T17:12:57.076Z,12.40
2023-04-29T17:15:24.899Z,12.40
2023-04-29T17:17:54.987Z,12.40
2023-04-29T17:20:22.885Z,12.30
2023-04-29T17:22:51.208Z,12.40
2023-04-29T17:25:19.159Z,12.40
2023-04-29T17:27:47.213Z,12.40
2023-04-29T17:30:16.385Z,12.30
2023-04-29T17:32:44.655Z,12.20
2023-04-29T17:35:12.633Z,12.20
2023-04-29T17:37:40.705Z,12.10
2023-04-29T17:40:09.868Z,12.00
2023-04-29T17:42:38.699Z,12.00
2023-04-29T17:45:07.711Z,12.00
2023-04-29T17:47:36.880Z,12.00
2023-04-29T17:50:04.851Z,11.90
2023-04-29T17:52:33.140Z,11.80
2023-04-29T17:55:00.980Z,11.90
2023-04-29T17:57:29.663Z,11.80
2023-04-29T17:59:57.736Z,11.70
2023-04-29T18:02:25.836Z,11.70
2023-04-29T18:04:55.863Z,11.60
2023-04-29T18:07:23.668Z,11.50
2023-04-29T18:09:51.716Z,11.50
2023-04-29T18:12:19.665Z,11.50
2023-04-29T18:14:48.765Z,11.50
2023-04-29T18:17:16.647Z,11.50
2023-04-29T18:19:47.677Z,11.40
2023-04-29T18:22:17.022Z,11.30
2023-04-29T18:24:44.942Z,11.30
2023-04-29T18:27:12.733Z,11.20
2023-04-29T18:29:40.564Z,11.10
2023-04-29T18:32:08.430Z,11.10
2023-04-29T18:34:36.360Z,11.10
2023-04-29T18:37:04.356Z,11.10
2023-04-29T18:39:33.589Z,10.90
2023-04-29T18:42:02.816Z,10.90
2023-04-29T18:44:30.631Z,10.90
2023-04-29T18:46:58.806Z,10.90
2023-04-29T18:49:26.729Z,10.80
2023-04-29T18:51:55.663Z,10.80
2023-04-29T18:54:23.507Z,10.80
2023-04-29T18:56:53.143Z,10.80
2023-04-29T18:59:21.012Z,10.80
2023-04-29T19:01:49.718Z,10.80
2023-04-29T19:04:17.704Z,10.80
2023-04-29T19:06:45.675Z,10.70
2023-04-29T19:09:13.730Z,10.70
2023-04-29T19:11:41.721Z,10.60
2023-04-29T19:14:11.060Z,10.60
2023-04-29T19:16:39.497Z,10.50
2023-04-29T19:19:07.609Z,10.50
2023-04-29T19:21:35.756Z,10.60
2023-04-29T19:24:03.691Z,10.50
2023-04-29T19:26:34.613Z,10.50
2023-04-29T19:29:03.927Z,10.40
2023-04-29T19:31:33.194Z,10.30
2023-04-29T19:34:01.544Z,10.30
2023-04-29T19:36:29.379Z,10.30
2023-04-29T19:38:58.307Z,10.30
2023-04-29T19:41:26.160Z,10.30
2023-04-29T19:43:54.013Z,10.20
2023-04-29T19:46:21.868Z,10.20
2023-04-29T19:48:51.122Z,10.20
2023-04-29T19:51:18.918Z,10.20
2023-04-29T19:53:46.752Z,10.20
2023-04-29T19:56:14.556Z,10.10
2023-04-29T19:58:42.501Z,10.10
2023-04-29T20:01:10.299Z,10.10
2023-04-29T20:03:39.406Z,10.10
2023-04-29T20:06:10.147Z,10.20
2023-04-29T20:08:38.165Z,10.20
2023-04-29T20:11:06.105Z,10.10
2023-04-29T20:13:33.893Z,10.10
2023-04-29T20:16:01.729Z,10.20
2023-04-29T20:18:29.589Z,10.20
2023-04-29T20:20:57.473Z,10.20
2023-04-29T20:23:26.736Z,10.10
2023-04-29T20:25:54.561Z,10.10
2023-04-29T20:28:22.336Z,10.10
2023-04-29T20:30:50.146Z,10.10
2023-04-29T20:33:18.582Z,10.10
2023-04-29T20:35:46.525Z,10.10
2023-04-29T20:38:14.291Z,10.10
2023-04-29T20:40:43.716Z,10.20
2023-04-29T20:43:11.531Z,10.10
2023-04-29T20:45:39.490Z,10.10
2023-04-29T20:48:07.869Z,10.10
2023-04-29T20:50:35.772Z,10.10
2023-04-29T20:53:03.589Z,10.10
2023-04-29T20:55:31.464Z,10.10
2023-04-29T20:58:00.630Z,10.10
2023-04-29T21:00:28.529Z,10.10
2023-04-29T21:02:56.454Z,10.20
2023-04-29T21:05:24.300Z,10.10
2023-04-29T21:07:52.081Z,10.10
2023-04-29T21:10:20.113Z,10.10
2023-04-29T21:12:47.884Z,10.10
2023-04-29T21:15:17.534Z,10.10
2023-04-29T21:17:45.358Z,10.10
2023-04-29T21:20:13.963Z,10.10
2023-04-29T21:22:41.740Z,10.00
2023-04-29T21:25:09.844Z,10.00
2023-04-29T21:27:37.679Z,10.00
2023-04-29T21:30:06.410Z,10.00
2023-04-29T21:32:36.090Z,9.90
2023-04-29T21:35:03.973Z,9.90
2023-04-29T21:37:32.118Z,9.90
2023-04-29T21:40:00.428Z,9.90
2023-04-29T21:42:28.705Z,9.90
2023-04-29T21:44:58.353Z,9.90
2023-04-29T21:47:26.733Z,9.80
2023-04-29T21:49:56.321Z,9.80
2023-04-29T21:52:24.765Z,9.80
2023-04-29T21:54:52.584Z,9.80
2023-04-29T21:57:26.282Z,9.70
2023-04-29T21:59:59.881Z,9.70
2023-04-29T22:02:37.911Z,9.70
2023-04-29T22:05:08.351Z,9.60
2023-04-29T22:07:36.163Z,9.50
2023-04-29T22:10:03.967Z,9.50
2023-04-29T22:12:31.785Z,9.40
2023-04-29T22:14:59.607Z,9.40
2023-04-29T22:17:27.381Z,9.30
2023-04-29T22:19:55.578Z,9.20
2023-04-29T22:22:24.973Z,9.10
2023-04-29T22:24:52.817Z,9.00
2023-04-29T22:27:20.613Z,9.00
2023-04-29T22:29:48.390Z,9.00
2023-04-29T22:32:16.238Z,9.00
2023-04-29T22:34:44.106Z,9.00
2023-04-29T22:37:11.900Z,9.00
2023-04-29T22:39:41.064Z,9.00
2023-04-29T22:42:08.855Z,9.00
2023-04-29T22:44:36.866Z,9.00
2023-04-29T22:47:04.991Z,8.90
2023-04-29T22:49:32.816Z,8.90
2023-04-29T22:52:00.637Z,8.90
2023-04-29T22:54:29.758Z,8.80
2023-04-29T22:56:59.232Z,8.90
2023-04-29T22:59:27.015Z,8.90
2023-04-29T23:01:54.820Z,8.90
2023-04-29T23:04:24.529Z,9.00
2023-04-29T23:06:52.711Z,9.00
2023-04-29T23:09:20.595Z,9.00
2023-04-29T23:11:48.422Z,9.00
2023-04-29T23:14:17.765Z,9.00
2023-04-29T23:16:45.566Z,9.10
2023-04-29T23:19:13.373Z,9.10
2023-04-29T23:21:41.219Z,9.10
2023-04-29T23:24:09.033Z,9.20
2023-04-29T23:26:36.850Z,9.20
2023-04-29T23:29:04.664Z,9.20
2023-04-29T23:31:33.818Z,9.10
2023-04-29T23:34:01.672Z,9.10
2023-04-29T23:36:29.591Z,9.10
2023-04-29T23:38:57.367Z,9.10
2023-04-29T23:41:25.155Z,9.10
2023-04-29T23:43:53.024Z,9.10
2023-04-29T23:46:20.788Z,9.10
2023-04-29T23:48:49.921Z,9.10
2023-04-29T23:51:17.718Z,9.10
2023-04-29T23:53:45.513Z,9.20
2023-04-29T23:56:13.300Z,9.20
2023-04-29T23:58:41.096Z,9.20
